createdAt,value
2023-05-19T00:01:15.430Z,102473.06
2023-05-19T00:02:47.558Z,102475.69
2023-05-19T00:04:22.852Z,102475.69
2023-05-19T00:05:54.890Z,102475.69
2023-05-19T00:07:26.796Z,102478.28
2023-05-19T00:08:59.562Z,102475.69
2023-05-19T00:10:33.398Z,102468.66
2023-05-19T00:12:05.637Z,102477.31
2023-05-19T00:13:37.445Z,102472.06
2023-05-19T00:15:10.813Z,102475.56
2023-05-19T00:16:43.128Z,102467.66
2023-05-19T00:18:16.878Z,102472.88
2023-05-19T00:19:49.391Z,102474.56
2023-05-19T00:21:21.502Z,102471.91
2023-05-19T00:22:53.374Z,102475.44
2023-05-19T00:24:25.209Z,102478.03
2023-05-19T00:25:57.060Z,102480.66
2023-05-19T00:27:28.948Z,102471.84
2023-05-19T00:29:01.213Z,102473.56
2023-05-19T00:30:33.445Z,102479.69
2023-05-19T00:32:05.847Z,102478.81
2023-05-19T00:33:37.691Z,102480.53
2023-05-19T00:35:09.842Z,102472.66
2023-05-19T00:36:42.213Z,102477.00
2023-05-19T00:38:14.036Z,102468.25
2023-05-19T00:39:46.145Z,102477.81
2023-05-19T00:41:17.946Z,102477.81
2023-05-19T00:42:49.865Z,102471.69
2023-05-19T00:44:21.932Z,102474.28
2023-05-19T00:45:53.801Z,102473.34
2023-05-19T00:47:25.788Z,102477.69
2023-05-19T00:48:57.669Z,102472.44
2023-05-19T00:50:29.662Z,102473.31
2023-05-19T00:52:02.091Z,102472.44
2023-05-19T00:53:34.136Z,102469.75
2023-05-19T00:55:06.017Z,102475.00
2023-05-19T00:56:37.878Z,102466.19
2023-05-19T00:58:10.113Z,102461.78
2023-05-19T00:59:41.986Z,102466.09
2023-05-19T01:01:14.847Z,102467.81
2023-05-19T01:02:46.770Z,102461.66
2023-05-19T01:04:20.392Z,102465.13
2023-05-19T01:05:53.954Z,102458.13
2023-05-19T01:07:25.862Z,102461.47
2023-05-19T01:08:58.492Z,102464.09
2023-05-19T01:10:30.562Z,102465.81
2023-05-19T01:12:02.488Z,102459.66
2023-05-19T01:13:35.143Z,102457.94
2023-05-19T01:15:07.330Z,102460.47
2023-05-19T01:16:43.881Z,102464.84
2023-05-19T01:18:17.111Z,102462.25
2023-05-19T01:19:56.541Z,102463.97
2023-05-19T01:21:44.697Z,102463.06
2023-05-19T01:23:36.810Z,102463.91
2023-05-19T01:25:16.564Z,102465.63
2023-05-19T01:27:00.124Z,102466.50
2023-05-19T01:28:36.911Z,102468.19
2023-05-19T01:30:10.457Z,102466.44
2023-05-19T01:31:42.693Z,102471.69
2023-05-19T01:33:14.901Z,102470.75
2023-05-19T01:34:47.086Z,102468.13
2023-05-19T01:36:19.665Z,102466.38
2023-05-19T01:37:51.957Z,102474.22
2023-05-19T01:39:23.828Z,102481.16
2023-05-19T01:40:55.642Z,102468.94
2023-05-19T01:42:27.726Z,102474.16
2023-05-19T01:43:59.510Z,102472.31
2023-05-19T01:45:32.897Z,102471.44
2023-05-19T01:47:04.932Z,102475.78
2023-05-19T01:48:36.848Z,102474.91
2023-05-19T01:50:08.932Z,102474.03
2023-05-19T01:51:41.180Z,102473.97
2023-05-19T01:53:13.123Z,102472.22
2023-05-19T01:54:45.130Z,102471.34
2023-05-19T01:56:22.379Z,102465.22
2023-05-19T01:58:07.751Z,102470.41
2023-05-19T01:59:47.831Z,102473.91
2023-05-19T02:01:19.665Z,102468.63
2023-05-19T02:03:01.717Z,102468.63
2023-05-19T02:04:40.355Z,102462.50
2023-05-19T02:06:12.625Z,102473.81
2023-05-19T02:07:50.624Z,102463.28
2023-05-19T02:09:31.621Z,102466.75
2023-05-19T02:11:04.470Z,102463.22
2023-05-19T02:12:37.879Z,102471.94
2023-05-19T02:14:14.578Z,102468.41
2023-05-19T02:15:46.495Z,102464.03
2023-05-19T02:17:19.083Z,102464.91
2023-05-19T02:18:52.333Z,102467.56
2023-05-19T02:20:24.316Z,102464.06
2023-05-19T02:21:56.678Z,102463.97
2023-05-19T02:23:28.549Z,102461.31
2023-05-19T02:25:02.681Z,102452.53
2023-05-19T02:26:37.839Z,102451.66
2023-05-19T02:28:09.684Z,102452.53
2023-05-19T02:29:41.673Z,102448.16
2023-05-19T02:31:13.463Z,102447.28
2023-05-19T02:32:48.225Z,102447.25
2023-05-19T02:34:21.301Z,102445.56
2023-05-19T02:35:53.337Z,102442.00
2023-05-19T02:37:25.572Z,102444.59
2023-05-19T02:38:57.534Z,102448.06
2023-05-19T02:40:29.690Z,102436.69
2023-05-19T02:42:01.736Z,102441.91
2023-05-19T02:43:34.627Z,102447.13
2023-05-19T02:45:06.602Z,102442.69
2023-05-19T02:46:38.476Z,102449.66
2023-05-19T02:48:10.410Z,102449.66
2023-05-19T02:49:43.364Z,102448.75
2023-05-19T02:51:15.155Z,102448.66
2023-05-19T02:52:46.972Z,102449.53
2023-05-19T02:54:18.799Z,102451.22
2023-05-19T02:55:50.599Z,102450.34
2023-05-19T02:57:22.454Z,102447.72
2023-05-19T02:58:54.384Z,102459.94
2023-05-19T03:00:26.308Z,102452.00
2023-05-19T03:01:59.945Z,102448.53
2023-05-19T03:03:32.131Z,102447.69
2023-05-19T03:05:04.240Z,102447.69
2023-05-19T03:06:36.683Z,102447.63
2023-05-19T03:08:08.593Z,102451.09
2023-05-19T03:09:40.584Z,102449.25
2023-05-19T03:11:12.372Z,102447.47
2023-05-19T03:12:44.764Z,102451.75
2023-05-19T03:14:18.919Z,102449.16
2023-05-19T03:15:51.418Z,102451.81
2023-05-19T03:17:23.415Z,102442.13
2023-05-19T03:18:55.895Z,102453.47
2023-05-19T03:20:27.893Z,102450.00
2023-05-19T03:21:59.810Z,102445.63
2023-05-19T03:23:31.709Z,102439.53
2023-05-19T03:25:03.737Z,102444.72
2023-05-19T03:26:35.880Z,102442.97
2023-05-19T03:28:07.853Z,102439.41
2023-05-19T03:29:39.776Z,102449.03
2023-05-19T03:31:11.751Z,102456.81
2023-05-19T03:32:44.164Z,102444.56
2023-05-19T03:34:16.596Z,102448.00
2023-05-19T03:35:48.539Z,102449.78
2023-05-19T03:37:21.078Z,102449.75
2023-05-19T03:38:52.954Z,102453.25
2023-05-19T03:40:24.886Z,102453.22
2023-05-19T03:42:02.406Z,102454.91
2023-05-19T03:43:34.342Z,102458.38
2023-05-19T03:45:09.404Z,102453.97
2023-05-19T03:46:44.562Z,102458.31
2023-05-19T03:48:22.033Z,102453.09
2023-05-19T03:50:14.238Z,102460.00
2023-05-19T03:51:58.464Z,102457.34
2023-05-19T03:53:42.201Z,102459.03
2023-05-19T03:55:14.989Z,102461.66
2023-05-19T03:56:46.888Z,102458.91
2023-05-19T03:58:19.205Z,102461.59
2023-05-19T03:59:51.047Z,102458.09
2023-05-19T04:01:22.875Z,102458.97
2023-05-19T04:02:54.883Z,102459.88
2023-05-19T04:04:26.990Z,102459.00
2023-05-19T04:05:58.863Z,102458.97
2023-05-19T04:07:31.265Z,102464.13
2023-05-19T04:09:04.762Z,102463.25
2023-05-19T04:10:36.662Z,102470.16
2023-05-19T04:12:08.709Z,102468.41
2023-05-19T04:13:40.591Z,102468.41
2023-05-19T04:15:12.841Z,102473.69
2023-05-19T04:16:45.522Z,102473.69
2023-05-19T04:18:17.352Z,102470.16
2023-05-19T04:19:49.166Z,102473.66
2023-05-19T04:21:22.659Z,102481.50
2023-05-19T04:22:54.523Z,102477.19
2023-05-19T04:24:26.515Z,102477.16
2023-05-19T04:25:58.410Z,102475.41
2023-05-19T04:27:32.191Z,102473.59
2023-05-19T04:29:05.110Z,102470.09
2023-05-19T04:30:38.857Z,102468.34
2023-05-19T04:32:10.947Z,102477.03
2023-05-19T04:33:44.192Z,102472.72
2023-05-19T04:35:17.767Z,102467.53
2023-05-19T04:36:50.970Z,102469.28
2023-05-19T04:38:25.149Z,102469.25
2023-05-19T04:39:57.425Z,102470.13
2023-05-19T04:41:31.056Z,102471.91
2023-05-19T04:43:02.878Z,102465.81
2023-05-19T04:44:36.383Z,102469.31
2023-05-19T04:46:12.317Z,102471.09
2023-05-19T04:47:47.206Z,102478.00
2023-05-19T04:49:19.687Z,102476.28
2023-05-19T04:50:52.229Z,102473.69
2023-05-19T04:52:24.163Z,102472.03
2023-05-19T04:53:56.674Z,102469.41
2023-05-19T04:55:28.521Z,102468.56
2023-05-19T04:57:00.294Z,102466.03
2023-05-19T04:58:34.385Z,102469.56
2023-05-19T05:00:08.651Z,102465.19
2023-05-19T05:01:49.524Z,102466.91
2023-05-19T05:03:24.361Z,102460.88
2023-05-19T05:04:56.967Z,102465.25
2023-05-19T05:06:29.462Z,102465.34
2023-05-19T05:08:01.404Z,102468.91
2023-05-19T05:09:37.154Z,102465.44
2023-05-19T05:11:09.265Z,102470.72
2023-05-19T05:12:41.798Z,102465.44
2023-05-19T05:14:13.747Z,102464.59
2023-05-19T05:15:47.154Z,102466.34
2023-05-19T05:17:19.276Z,102467.25
2023-05-19T05:18:51.450Z,102462.06
2023-05-19T05:20:23.703Z,102459.38
2023-05-19T05:21:55.750Z,102464.66
2023-05-19T05:23:27.987Z,102469.03
2023-05-19T05:24:59.978Z,102465.59
2023-05-19T05:26:32.221Z,102468.22
2023-05-19T05:28:05.488Z,102467.38
2023-05-19T05:29:39.356Z,102472.69
2023-05-19T05:31:12.550Z,102468.38
2023-05-19T05:32:45.298Z,102466.66
2023-05-19T05:34:31.424Z,102461.44
2023-05-19T05:36:03.877Z,102459.78
2023-05-19T05:37:35.946Z,102449.34
2023-05-19T05:39:08.429Z,102452.00
2023-05-19T05:40:41.672Z,102449.44
2023-05-19T05:42:14.831Z,102453.84
2023-05-19T05:43:46.697Z,102450.41
2023-05-19T05:45:18.552Z,102450.47
2023-05-19T05:46:50.702Z,102447.91
2023-05-19T05:48:22.882Z,102446.22
2023-05-19T05:49:54.999Z,102454.16
2023-05-19T05:51:26.877Z,102449.03
2023-05-19T05:52:58.704Z,102443.00
2023-05-19T05:54:31.752Z,102440.47
2023-05-19T05:56:03.811Z,102438.78
2023-05-19T05:57:43.767Z,102438.81
2023-05-19T05:59:15.609Z,102444.16
2023-05-19T06:00:51.810Z,102447.78
2023-05-19T06:02:23.922Z,102444.50
2023-05-19T06:03:55.796Z,102443.91
2023-05-19T06:05:29.178Z,102443.38
2023-05-19T06:07:02.159Z,102443.81
2023-05-19T06:08:38.214Z,102441.59
2023-05-19T06:10:13.097Z,102450.56
2023-05-19T06:11:45.319Z,102453.41
2023-05-19T06:13:22.463Z,102444.91
2023-05-19T06:14:54.294Z,102453.28
2023-05-19T06:16:26.286Z,102452.66
2023-05-19T06:17:59.932Z,102450.94
2023-05-19T06:19:32.089Z,102442.41
2023-05-19T06:21:04.133Z,102444.31
2023-05-19T06:22:36.342Z,102440.88
2023-05-19T06:24:09.528Z,102441.72
2023-05-19T06:25:41.810Z,102437.25
2023-05-19T06:27:14.252Z,102443.34
2023-05-19T06:28:46.122Z,102444.97
2023-05-19T06:30:28.803Z,102446.63
2023-05-19T06:32:23.851Z,102450.13
2023-05-19T06:33:55.810Z,102453.59
2023-05-19T06:35:27.649Z,102449.16
2023-05-19T06:37:02.655Z,102450.00
2023-05-19T06:38:35.909Z,102450.00
2023-05-19T06:40:08.616Z,102444.84
2023-05-19T06:41:41.604Z,102450.91
2023-05-19T06:43:13.726Z,102449.19
2023-05-19T06:45:06.310Z,102444.81
2023-05-19T06:46:38.230Z,102450.91
2023-05-19T06:48:10.560Z,102443.00
2023-05-19T06:49:43.016Z,102439.47
2023-05-19T06:51:16.949Z,102435.09
2023-05-19T06:52:49.183Z,102442.06
2023-05-19T06:54:21.273Z,102436.78
2023-05-19T06:55:59.553Z,102443.78
2023-05-19T06:57:36.418Z,102444.66
2023-05-19T06:59:08.566Z,102435.91
2023-05-19T07:00:42.273Z,102435.06
2023-05-19T07:02:30.994Z,102442.13
2023-05-19T07:04:03.114Z,102436.03
2023-05-19T07:05:35.349Z,102444.81
2023-05-19T07:07:07.491Z,102438.75
2023-05-19T07:08:39.805Z,102437.03
2023-05-19T07:10:13.036Z,102437.94
2023-05-19T07:11:44.990Z,102439.72
2023-05-19T07:13:17.105Z,102436.28
2023-05-19T07:14:48.990Z,102431.94
2023-05-19T07:16:21.939Z,102430.19
2023-05-19T07:17:53.996Z,102438.16
2023-05-19T07:19:26.354Z,102432.91
2023-05-19T07:20:59.404Z,102433.81
2023-05-19T07:22:31.684Z,102434.75
2023-05-19T07:24:03.789Z,102427.81
2023-05-19T07:25:35.851Z,102432.25
2023-05-19T07:27:07.979Z,102426.13
2023-05-19T07:28:41.615Z,102429.66
2023-05-19T07:30:13.757Z,102423.53
2023-05-19T07:31:45.838Z,102427.94
2023-05-19T07:33:17.842Z,102427.97
2023-05-19T07:34:49.687Z,102426.25
2023-05-19T07:36:21.710Z,102431.50
2023-05-19T07:37:53.853Z,102421.84
2023-05-19T07:39:28.170Z,102425.34
2023-05-19T07:41:00.404Z,102424.53
2023-05-19T07:42:32.342Z,102422.75
2023-05-19T07:44:08.047Z,102422.75
2023-05-19T07:45:40.124Z,102420.97
2023-05-19T07:47:12.090Z,102417.44
2023-05-19T07:48:44.052Z,102421.84
2023-05-19T07:50:16.532Z,102420.97
2023-05-19T07:51:48.394Z,102419.16
2023-05-19T07:53:20.426Z,102420.03
2023-05-19T07:54:52.477Z,102418.22
2023-05-19T07:56:25.174Z,102420.84
2023-05-19T07:57:57.531Z,102421.66
2023-05-19T07:59:29.412Z,102415.47
2023-05-19T08:01:01.455Z,102414.59
2023-05-19T08:02:34.213Z,102412.78
2023-05-19T08:04:06.434Z,102411.84
2023-05-19T08:05:38.490Z,102414.47
2023-05-19T08:07:10.376Z,102411.78
2023-05-19T08:08:42.548Z,102410.81
2023-05-19T08:10:14.449Z,102405.53
2023-05-19T08:11:47.332Z,102405.47
2023-05-19T08:13:19.394Z,102407.09
2023-05-19T08:14:51.514Z,102411.41
2023-05-19T08:16:23.598Z,102413.94
2023-05-19T08:17:55.588Z,102403.28
2023-05-19T08:19:27.769Z,102396.09
2023-05-19T08:20:59.774Z,102406.72
2023-05-19T08:22:31.731Z,102399.56
2023-05-19T08:24:03.894Z,102396.81
2023-05-19T08:25:36.018Z,102396.78
2023-05-19T08:27:08.090Z,102398.47
2023-05-19T08:28:39.973Z,102392.16
2023-05-19T08:30:12.196Z,102395.53
2023-05-19T08:31:44.748Z,102391.88
2023-05-19T08:33:16.863Z,102390.00
2023-05-19T08:34:48.843Z,102383.75
2023-05-19T08:36:22.314Z,102382.78
2023-05-19T08:37:54.369Z,102382.91
2023-05-19T08:39:29.246Z,102389.91
2023-05-19T08:41:01.268Z,102381.88
2023-05-19T08:42:36.118Z,102373.63
2023-05-19T08:44:08.002Z,102371.72
2023-05-19T08:45:40.425Z,102371.91
2023-05-19T08:47:14.988Z,102366.38
2023-05-19T08:48:46.954Z,102362.56
2023-05-19T08:50:21.774Z,102356.28
2023-05-19T08:51:59.816Z,102364.16
2023-05-19T08:53:34.846Z,102357.66
2023-05-19T08:55:09.963Z,102356.78
2023-05-19T08:56:45.853Z,102356.88
2023-05-19T08:58:20.614Z,102353.22
2023-05-19T08:59:52.555Z,102356.56
2023-05-19T09:01:24.514Z,102355.47
2023-05-19T09:03:06.128Z,102348.28
2023-05-19T09:04:49.224Z,102346.25
2023-05-19T09:06:21.741Z,102352.47
2023-05-19T09:07:53.738Z,102340.72
2023-05-19T09:09:25.924Z,102345.69
2023-05-19T09:10:57.963Z,102347.34
2023-05-19T09:12:29.908Z,102341.69
2023-05-19T09:14:01.817Z,102341.41
2023-05-19T09:15:34.552Z,102338.06
2023-05-19T09:17:06.897Z,102344.88
2023-05-19T09:18:39.248Z,102335.84
2023-05-19T09:20:11.827Z,102328.19
2023-05-19T09:21:44.642Z,102334.00
2023-05-19T09:23:17.256Z,102323.94
2023-05-19T09:24:49.070Z,102324.75
2023-05-19T09:26:23.732Z,102317.81
2023-05-19T09:27:55.568Z,102317.59
2023-05-19T09:29:27.470Z,102325.63
2023-05-19T09:31:05.650Z,102321.84
2023-05-19T09:32:37.581Z,102317.84
2023-05-19T09:34:12.525Z,102327.38
2023-05-19T09:35:47.222Z,102331.28
2023-05-19T09:37:22.346Z,102315.28
2023-05-19T09:38:54.185Z,102315.38
2023-05-19T09:40:26.614Z,102308.78
2023-05-19T09:41:59.041Z,102303.13
2023-05-19T09:43:32.038Z,102309.16
2023-05-19T09:45:04.167Z,102306.00
2023-05-19T09:46:36.861Z,102306.31
2023-05-19T09:48:08.942Z,102317.84
2023-05-19T09:49:46.129Z,102307.44
2023-05-19T09:51:18.017Z,102299.31
2023-05-19T09:52:50.604Z,102310.09
2023-05-19T09:54:24.037Z,102306.56
2023-05-19T09:55:58.111Z,102309.03
2023-05-19T09:57:40.338Z,102292.38
2023-05-19T09:59:12.762Z,102294.06
2023-05-19T10:00:45.186Z,102303.91
2023-05-19T10:02:18.056Z,102305.56
2023-05-19T10:03:49.985Z,102296.97
2023-05-19T10:05:22.203Z,102296.97
2023-05-19T10:06:54.730Z,102296.81
2023-05-19T10:08:27.639Z,102298.19
2023-05-19T10:09:59.454Z,102295.13
2023-05-19T10:11:31.427Z,102293.03
2023-05-19T10:13:04.542Z,102297.22
2023-05-19T10:14:36.398Z,102290.78
2023-05-19T10:16:08.866Z,102302.19
2023-05-19T10:17:41.531Z,102290.19
2023-05-19T10:19:13.476Z,102294.25
2023-05-19T10:20:45.321Z,102289.41
2023-05-19T10:22:17.232Z,102291.69
2023-05-19T10:23:49.039Z,102289.34
2023-05-19T10:25:21.461Z,102292.75
2023-05-19T10:27:09.771Z,102289.25
2023-05-19T10:28:43.765Z,102300.81
2023-05-19T10:30:18.400Z,102290.66
2023-05-19T10:31:51.017Z,102293.44
2023-05-19T10:33:23.392Z,102280.28
2023-05-19T10:34:55.497Z,102287.63
2023-05-19T10:36:44.588Z,102294.91
2023-05-19T10:38:16.707Z,102285.44
2023-05-19T10:39:48.564Z,102283.53
2023-05-19T10:41:29.729Z,102284.81
2023-05-19T10:43:20.317Z,102280.44
2023-05-19T10:45:07.780Z,102280.50
2023-05-19T10:46:43.296Z,102282.63
2023-05-19T10:48:16.605Z,102276.81
2023-05-19T10:49:48.738Z,102281.28
2023-05-19T10:51:20.815Z,102277.09
2023-05-19T10:52:56.343Z,102272.28
2023-05-19T10:54:48.437Z,102280.28
2023-05-19T10:56:31.380Z,102272.41
2023-05-19T10:58:03.229Z,102264.59
2023-05-19T10:59:38.433Z,102268.44
2023-05-19T11:01:13.807Z,102276.63
2023-05-19T11:02:46.378Z,102278.75
2023-05-19T11:04:18.272Z,102269.72
2023-05-19T11:05:52.624Z,102261.88
2023-05-19T11:07:25.127Z,102274.25
2023-05-19T11:09:01.329Z,102264.31
2023-05-19T11:10:33.604Z,102264.94
2023-05-19T11:12:05.541Z,102273.56
2023-05-19T11:13:37.585Z,102260.78
2023-05-19T11:15:13.261Z,102264.00
2023-05-19T11:16:48.437Z,102263.50
2023-05-19T11:18:21.739Z,102260.63
2023-05-19T11:19:57.038Z,102257.19
2023-05-19T11:21:47.337Z,102256.69
2023-05-19T11:23:19.341Z,102256.38
2023-05-19T11:24:53.178Z,102260.63
2023-05-19T11:26:40.469Z,102264.00
2023-05-19T11:28:13.569Z,102257.25
2023-05-19T11:29:45.394Z,102259.91
2023-05-19T11:31:17.404Z,102263.16
2023-05-19T11:32:49.281Z,102266.34
2023-05-19T11:34:21.374Z,102254.22
2023-05-19T11:35:53.735Z,102258.25
2023-05-19T11:37:25.712Z,102255.16
2023-05-19T11:38:57.773Z,102250.59
2023-05-19T11:40:29.919Z,102247.56
2023-05-19T11:42:01.923Z,102245.38
2023-05-19T11:43:33.980Z,102241.72
2023-05-19T11:45:06.184Z,102246.22
2023-05-19T11:46:38.365Z,102223.16
2023-05-19T11:48:13.473Z,102224.38
2023-05-19T11:49:46.260Z,102241.09
2023-05-19T11:51:18.145Z,102243.69
2023-05-19T11:52:50.907Z,102248.66
2023-05-19T11:54:22.815Z,102240.09
2023-05-19T11:55:54.750Z,102239.16
2023-05-19T11:57:26.747Z,102241.03
2023-05-19T11:58:58.610Z,102237.97
2023-05-19T12:00:31.288Z,102225.84
2023-05-19T12:02:04.303Z,102227.34
2023-05-19T12:03:36.331Z,102236.16
2023-05-19T12:05:09.110Z,102230.53
2023-05-19T12:06:41.043Z,102230.84
2023-05-19T12:08:13.243Z,102222.00
2023-05-19T12:09:48.329Z,102219.97
2023-05-19T12:11:20.237Z,102232.09
2023-05-19T12:12:52.357Z,102223.91
2023-05-19T12:14:26.124Z,102221.75
2023-05-19T12:16:01.856Z,102223.34
2023-05-19T12:17:33.934Z,102217.03
2023-05-19T12:19:06.459Z,102215.66
2023-05-19T12:20:38.535Z,102212.38
2023-05-19T12:22:10.534Z,102204.81
2023-05-19T12:23:42.740Z,102210.31
2023-05-19T12:25:15.721Z,102206.19
2023-05-19T12:26:50.557Z,102213.25
2023-05-19T12:28:22.491Z,102211.28
2023-05-19T12:29:55.190Z,102202.63
2023-05-19T12:31:28.415Z,102214.44
2023-05-19T12:33:00.621Z,102207.25
2023-05-19T12:34:32.628Z,102199.78
2023-05-19T12:36:05.324Z,102205.41
2023-05-19T12:37:37.512Z,102203.53
2023-05-19T12:39:09.780Z,102202.69
2023-05-19T12:40:41.779Z,102202.19
2023-05-19T12:42:13.808Z,102194.25
2023-05-19T12:43:45.770Z,102193.19
2023-05-19T12:45:20.413Z,102191.59
2023-05-19T12:46:52.461Z,102194.63
2023-05-19T12:48:24.522Z,102193.44
2023-05-19T12:49:57.191Z,102194.09
2023-05-19T12:51:29.189Z,102190.31
2023-05-19T12:53:01.075Z,102195.25
2023-05-19T12:54:36.158Z,102189.31
2023-05-19T12:56:14.749Z,102189.31
2023-05-19T12:57:57.583Z,102187.91
2023-05-19T13:01:15.678Z,102191.69
2023-05-19T13:02:57.186Z,102184.25
2023-05-19T13:04:29.276Z,102195.81
2023-05-19T13:06:01.245Z,102176.00
2023-05-19T13:07:33.159Z,102182.00
2023-05-19T13:09:05.166Z,102184.38
2023-05-19T13:10:38.077Z,102187.63
2023-05-19T13:12:10.026Z,102181.91
2023-05-19T13:13:42.078Z,102188.13
2023-05-19T13:15:14.009Z,102188.63
2023-05-19T13:16:49.335Z,102195.59
2023-05-19T13:18:21.565Z,102188.41
2023-05-19T13:19:53.609Z,102176.19
2023-05-19T13:21:25.571Z,102172.66
2023-05-19T13:22:57.704Z,102172.28
2023-05-19T13:24:29.964Z,102182.63
2023-05-19T13:26:01.921Z,102171.59
2023-05-19T13:27:33.896Z,102165.50
2023-05-19T13:29:05.906Z,102167.03
2023-05-19T13:30:40.191Z,102165.84
2023-05-19T13:32:12.136Z,102164.56
2023-05-19T13:33:44.066Z,102154.03
2023-05-19T13:35:16.125Z,102154.81
2023-05-19T13:36:49.186Z,102157.16
2023-05-19T13:38:21.156Z,102150.03
2023-05-19T13:39:53.246Z,102140.00
2023-05-19T13:41:26.471Z,102149.47
2023-05-19T13:42:58.493Z,102143.44
2023-05-19T13:44:30.426Z,102141.44
2023-05-19T13:46:02.507Z,102143.13
2023-05-19T13:47:34.447Z,102144.13
2023-05-19T13:49:06.341Z,102141.75
2023-05-19T13:50:38.290Z,102139.31
2023-05-19T13:52:10.091Z,102140.72
2023-05-19T13:53:42.655Z,102136.44
2023-05-19T13:55:14.524Z,102140.31
2023-05-19T13:56:48.854Z,102129.41
2023-05-19T13:58:20.699Z,102143.84
2023-05-19T14:00:02.722Z,102144.47
2023-05-19T14:01:44.248Z,102139.19
2023-05-19T14:03:19.898Z,102132.47
2023-05-19T14:04:51.838Z,102130.81
2023-05-19T14:06:23.694Z,102136.44
2023-05-19T14:07:55.567Z,102136.31
2023-05-19T14:09:28.113Z,102129.88
2023-05-19T14:11:01.604Z,102141.31
2023-05-19T14:12:43.555Z,102137.25
2023-05-19T14:14:19.325Z,102132.22
2023-05-19T14:15:51.216Z,102133.28
2023-05-19T14:17:23.105Z,102136.56
2023-05-19T14:18:55.124Z,102138.44
2023-05-19T14:20:28.667Z,102123.94
2023-05-19T14:22:01.258Z,102126.81
2023-05-19T14:23:33.159Z,102130.69
2023-05-19T14:25:05.445Z,102120.56
2023-05-19T14:26:37.334Z,102123.84
2023-05-19T14:28:11.249Z,102128.00
2023-05-19T14:31:15.132Z,102127.50
2023-05-19T14:32:47.082Z,102122.94
2023-05-19T14:34:21.446Z,102124.13
2023-05-19T14:35:53.584Z,102119.19
2023-05-19T14:37:29.108Z,102123.06
2023-05-19T14:39:01.459Z,102118.59
2023-05-19T14:40:33.564Z,102118.78
2023-05-19T14:42:05.972Z,102122.81
2023-05-19T14:43:37.909Z,102121.41
2023-05-19T14:45:10.139Z,102113.44
2023-05-19T14:46:42.068Z,102117.31
2023-05-19T14:48:14.175Z,102115.00
2023-05-19T14:49:46.133Z,102114.34
2023-05-19T14:51:18.341Z,102113.09
2023-05-19T14:52:50.300Z,102115.47
2023-05-19T14:54:22.184Z,102110.31
2023-05-19T14:55:54.150Z,102113.41
2023-05-19T14:57:25.980Z,102113.81
2023-05-19T14:58:57.981Z,102104.31
2023-05-19T15:00:30.208Z,102100.88
2023-05-19T15:02:02.156Z,102114.72
2023-05-19T15:03:34.201Z,102103.44
2023-05-19T15:05:06.370Z,102103.22
2023-05-19T15:06:38.248Z,102109.16
2023-05-19T15:08:10.156Z,102109.84
2023-05-19T15:09:41.987Z,102100.81
2023-05-19T15:11:13.913Z,102095.94
2023-05-19T15:12:45.863Z,102093.91
2023-05-19T15:14:17.990Z,102093.31
2023-05-19T15:15:49.863Z,102111.47
2023-05-19T15:17:21.838Z,102096.13
2023-05-19T15:18:53.738Z,102092.88
2023-05-19T15:20:28.740Z,102094.19
2023-05-19T15:22:01.409Z,102082.69
2023-05-19T15:23:33.313Z,102081.94
2023-05-19T15:25:05.372Z,102092.59
2023-05-19T15:26:37.230Z,102087.56
2023-05-19T15:28:09.096Z,102091.38
2023-05-19T15:29:40.949Z,102086.91
2023-05-19T15:31:12.880Z,102088.53
2023-05-19T15:32:44.793Z,102087.19
2023-05-19T15:34:16.684Z,102092.03
2023-05-19T15:35:51.893Z,102093.28
2023-05-19T15:37:23.745Z,102089.81
2023-05-19T15:38:55.685Z,102084.41
2023-05-19T15:40:27.564Z,102079.72
2023-05-19T15:41:59.639Z,102084.13
2023-05-19T15:43:31.540Z,102081.22
2023-05-19T15:45:03.523Z,102084.91
2023-05-19T15:46:35.575Z,102078.03
2023-05-19T15:48:07.575Z,102077.31
2023-05-19T15:49:39.601Z,102084.97
2023-05-19T15:51:11.868Z,102080.91
2023-05-19T15:52:43.865Z,102078.16
2023-05-19T15:54:15.725Z,102078.41
2023-05-19T15:55:47.630Z,102080.16
2023-05-19T15:57:19.425Z,102081.16
2023-05-19T15:58:51.405Z,102071.75
2023-05-19T16:00:23.875Z,102078.69
2023-05-19T16:01:55.829Z,102074.75
2023-05-19T16:03:27.878Z,102073.38
2023-05-19T16:04:59.776Z,102074.66
2023-05-19T16:06:31.913Z,102075.28
2023-05-19T16:08:03.926Z,102072.22
2023-05-19T16:09:35.806Z,102073.78
2023-05-19T16:11:07.678Z,102059.59
2023-05-19T16:12:39.541Z,102065.94
2023-05-19T16:14:11.506Z,102066.94
2023-05-19T16:15:43.377Z,102066.84
2023-05-19T16:17:15.508Z,102069.00
2023-05-19T16:18:47.372Z,102061.38
2023-05-19T16:20:20.381Z,102052.88
2023-05-19T16:21:52.170Z,102047.72
2023-05-19T16:23:24.978Z,102062.94
2023-05-19T16:24:56.789Z,102062.31
2023-05-19T16:26:29.182Z,102053.38
2023-05-19T16:28:12.075Z,102055.09
2023-05-19T16:29:43.961Z,102052.09
2023-05-19T16:31:15.884Z,102051.22
2023-05-19T16:32:47.787Z,102043.22
2023-05-19T16:34:19.741Z,102047.50
2023-05-19T16:35:51.686Z,102042.00
2023-05-19T16:37:23.630Z,102045.69
2023-05-19T16:38:55.793Z,102048.63
2023-05-19T16:40:30.153Z,102042.97
2023-05-19T16:42:03.349Z,102055.06
2023-05-19T16:43:36.143Z,102062.06
2023-05-19T16:45:08.323Z,102055.44
2023-05-19T16:46:40.384Z,102058.22
2023-05-19T16:48:12.410Z,102052.72
2023-05-19T16:49:44.380Z,102051.91
2023-05-19T16:51:16.321Z,102053.47
2023-05-19T16:52:48.158Z,102046.06
2023-05-19T16:54:20.073Z,102045.25
2023-05-19T16:55:51.905Z,102050.78
2023-05-19T16:57:23.776Z,102051.91
2023-05-19T16:58:55.784Z,102049.16
2023-05-19T17:00:29.673Z,102051.72
2023-05-19T17:02:01.695Z,102051.84
2023-05-19T17:03:35.929Z,102042.22
2023-05-19T17:05:08.161Z,102038.56
2023-05-19T17:06:40.393Z,102041.28
2023-05-19T17:08:12.931Z,102050.97
2023-05-19T17:09:44.972Z,102055.53
2023-05-19T17:11:16.737Z,102051.22
2023-05-19T17:12:48.586Z,102056.59
2023-05-19T17:14:21.121Z,102049.41
2023-05-19T17:15:53.024Z,102047.50
2023-05-19T17:17:24.940Z,102053.69
2023-05-19T17:18:56.837Z,102060.22
2023-05-19T17:20:28.748Z,102053.38
2023-05-19T17:22:00.592Z,102045.66
2023-05-19T17:23:32.714Z,102047.44
2023-05-19T17:25:04.724Z,102045.34
2023-05-19T17:26:36.711Z,102035.22
2023-05-19T17:28:08.682Z,102028.84
2023-05-19T17:29:40.548Z,102040.56
2023-05-19T17:31:12.874Z,102046.28
2023-05-19T17:32:44.831Z,102048.56
2023-05-19T17:34:16.749Z,102050.34
2023-05-19T17:35:48.532Z,102049.53
2023-05-19T17:37:23.680Z,102059.28
2023-05-19T17:38:55.503Z,102049.78
2023-05-19T17:40:27.423Z,102061.78
2023-05-19T17:41:59.276Z,102065.97
2023-05-19T17:43:31.129Z,102060.09
2023-05-19T17:45:07.711Z,102055.25
2023-05-19T17:46:39.819Z,102061.47
2023-05-19T17:48:11.902Z,102060.06